createdAt,value
2022-08-03T00:01:28.019Z,3.90
2022-08-03T00:03:54.711Z,4.03
2022-08-03T00:06:33.756Z,3.20
2022-08-03T00:09:05.169Z,8.02
2022-08-03T00:11:39.693Z,3.33
2022-08-03T00:14:07.041Z,3.08
2022-08-03T00:16:33.948Z,3.63
2022-08-03T00:19:01.308Z,4.25
2022-08-03T00:21:28.912Z,6.40
2022-08-03T00:23:55.517Z,3.15
2022-08-03T00:26:24.634Z,5.45
2022-08-03T00:28:51.658Z,4.25
2022-08-03T00:31:27.780Z,2.85
2022-08-03T00:34:09.234Z,3.63
2022-08-03T00:36:35.781Z,4.00
2022-08-03T00:39:02.259Z,5.40
2022-08-03T00:41:28.900Z,5.35
2022-08-03T00:43:55.400Z,4.82
2022-08-03T00:46:25.370Z,3.58
2022-08-03T00:48:53.183Z,3.72
2022-08-03T00:51:25.268Z,3.90
2022-08-03T00:53:52.323Z,4.25
2022-08-03T00:56:30.409Z,6.15
2022-08-03T00:58:58.260Z,5.03
2022-08-03T01:01:45.549Z,3.67
2022-08-03T01:04:12.202Z,4.15
2022-08-03T01:06:49.204Z,4.72
2022-08-03T01:09:24.142Z,7.20
2022-08-03T01:12:07.936Z,3.38
2022-08-03T01:14:39.852Z,4.35
2022-08-03T01:17:21.626Z,3.03
2022-08-03T01:20:02.091Z,4.32
2022-08-03T01:22:51.937Z,4.82
2022-08-03T01:25:43.023Z,5.65
2022-08-03T01:28:24.576Z,4.45
2022-08-03T01:30:55.309Z,3.42
2022-08-03T01:33:34.453Z,3.10
2022-08-03T01:36:05.120Z,4.43
2022-08-03T01:38:38.627Z,2.80
2022-08-03T01:41:10.752Z,3.38
2022-08-03T01:44:27.759Z,3.35
2022-08-03T01:46:28.582Z,3.63
2022-08-03T01:48:56.139Z,4.05
2022-08-03T01:51:23.089Z,3.42
2022-08-03T01:53:54.769Z,5.03
2022-08-03T01:56:24.802Z,7.60
2022-08-03T01:58:54.338Z,4.85
2022-08-03T02:01:23.027Z,9.65
2022-08-03T02:04:00.614Z,3.88
2022-08-03T02:07:00.696Z,4.10
2022-08-03T02:09:21.526Z,5.28
2022-08-03T02:11:49.428Z,5.30
2022-08-03T02:14:17.254Z,4.60
2022-08-03T02:16:45.901Z,4.15
2022-08-03T02:19:13.686Z,3.97
2022-08-03T02:21:55.688Z,4.90
2022-08-03T02:24:27.103Z,3.53
2022-08-03T02:26:56.446Z,4.38
2022-08-03T02:29:39.800Z,6.25
2022-08-03T02:32:12.403Z,5.57
2022-08-03T02:34:40.447Z,3.90
2022-08-03T02:37:10.244Z,4.65
2022-08-03T02:39:38.984Z,5.53
2022-08-03T02:42:07.080Z,4.50
2022-08-03T02:44:34.165Z,4.35
2022-08-03T02:47:09.711Z,5.53
2022-08-03T02:49:50.055Z,4.70
2022-08-03T02:52:20.692Z,4.45
2022-08-03T02:54:51.271Z,6.35
2022-08-03T02:57:20.745Z,4.70
2022-08-03T02:59:47.758Z,5.28
2022-08-03T03:02:16.901Z,3.90
2022-08-03T03:05:50.558Z,4.10
2022-08-03T03:07:34.663Z,5.90
2022-08-03T03:12:47.134Z,5.20
2022-08-03T03:15:13.674Z,6.60
2022-08-03T03:17:43.072Z,5.65
2022-08-03T03:20:10.163Z,4.82
2022-08-03T03:22:38.033Z,4.35
2022-08-03T03:25:07.519Z,5.70
2022-08-03T03:27:34.419Z,4.40
2022-08-03T03:32:29.540Z,4.78
2022-08-03T03:34:56.697Z,5.05
2022-08-03T03:37:23.178Z,6.72
2022-08-03T03:39:49.705Z,5.22
2022-08-03T03:42:16.676Z,4.95
2022-08-03T03:44:43.447Z,4.82
2022-08-03T03:47:09.956Z,7.65
2022-08-03T03:49:37.829Z,6.82
2022-08-03T03:52:04.667Z,5.25
2022-08-03T03:54:45.241Z,6.70
2022-08-03T03:57:13.082Z,5.28
2022-08-03T03:59:43.536Z,5.63
2022-08-03T04:02:11.536Z,6.85
2022-08-03T04:04:57.290Z,5.00
2022-08-03T04:07:44.208Z,6.93
2022-08-03T04:10:39.493Z,7.10
2022-08-03T04:13:10.109Z,5.57
2022-08-03T04:15:39.612Z,5.40
2022-08-03T04:18:09.729Z,8.15
2022-08-03T04:20:39.017Z,7.47
2022-08-03T04:23:13.613Z,7.53
2022-08-03T04:25:43.932Z,5.70
2022-08-03T04:28:30.530Z,6.78
2022-08-03T04:30:59.775Z,6.35
2022-08-03T04:33:29.659Z,9.75
2022-08-03T04:36:02.749Z,25.35
2022-08-03T04:38:37.600Z,19.67
2022-08-03T04:41:04.788Z,12.27
2022-08-03T04:43:33.431Z,14.10
2022-08-03T04:46:01.487Z,19.02
2022-08-03T04:48:28.645Z,9.60
2022-08-03T04:50:55.368Z,14.40
2022-08-03T04:53:22.426Z,12.30
2022-08-03T04:55:49.975Z,5.72
2022-08-03T04:58:16.685Z,7.68
2022-08-03T05:00:43.383Z,5.90
2022-08-03T05:03:19.512Z,8.32
2022-08-03T05:06:09.442Z,6.18
2022-08-03T05:08:41.118Z,6.63
2022-08-03T05:16:06.189Z,8.63
2022-08-03T05:18:32.761Z,8.35
2022-08-03T05:20:59.217Z,7.47
2022-08-03T05:23:25.653Z,6.55
2022-08-03T05:25:52.064Z,5.75
2022-08-03T05:28:19.945Z,6.90
2022-08-03T05:30:46.374Z,5.43
2022-08-03T05:33:12.820Z,4.82
2022-08-03T05:35:55.788Z,6.07
2022-08-03T05:38:28.729Z,6.68
2022-08-03T05:41:22.096Z,5.38
2022-08-03T05:43:44.018Z,5.65
2022-08-03T05:46:13.061Z,6.63
2022-08-03T05:48:40.028Z,7.45
2022-08-03T05:51:08.198Z,7.10
2022-08-03T05:53:34.733Z,6.75
2022-08-03T05:56:13.255Z,5.43
2022-08-03T05:58:46.778Z,6.22
2022-08-03T06:01:13.892Z,4.43
2022-08-03T06:04:05.052Z,5.05
2022-08-03T06:06:39.199Z,4.70
2022-08-03T06:09:05.723Z,4.25
2022-08-03T06:16:35.454Z,5.25
2022-08-03T06:19:01.911Z,7.93
2022-08-03T06:23:55.748Z,4.75
2022-08-03T06:26:35.792Z,3.75
2022-08-03T06:29:03.803Z,2.70
2022-08-03T06:31:33.844Z,2.80
2022-08-03T06:34:33.153Z,2.67
2022-08-03T06:36:50.957Z,2.92
2022-08-03T06:39:38.526Z,4.47
2022-08-03T06:44:43.347Z,6.47
2022-08-03T06:47:09.896Z,4.32
2022-08-03T06:50:16.620Z,4.10
2022-08-03T06:52:44.029Z,4.72
2022-08-03T06:55:10.552Z,3.17
2022-08-03T07:00:58.061Z,5.85
2022-08-03T07:03:27.371Z,5.88
2022-08-03T07:05:53.899Z,3.05
2022-08-03T07:08:33.623Z,4.13
2022-08-03T07:11:01.472Z,4.82
2022-08-03T07:13:30.089Z,5.15
2022-08-03T07:15:56.918Z,5.13
2022-08-03T07:18:39.715Z,2.75
2022-08-03T07:21:08.207Z,3.30
2022-08-03T07:23:35.053Z,2.83
2022-08-03T07:26:01.851Z,3.22
2022-08-03T07:28:28.496Z,3.90
2022-08-03T07:30:55.293Z,2.83
2022-08-03T07:33:23.307Z,4.28
2022-08-03T07:35:51.327Z,4.22
2022-08-03T07:38:21.012Z,2.72
2022-08-03T07:40:48.167Z,4.35
2022-08-03T07:43:14.858Z,4.07
2022-08-03T07:53:00.327Z,2.88
2022-08-03T07:55:47.900Z,3.10
2022-08-03T07:58:49.114Z,3.15
2022-08-03T08:03:59.571Z,3.75
2022-08-03T08:06:26.259Z,3.75
2022-08-03T08:08:54.092Z,2.28
2022-08-03T08:11:22.358Z,2.38
2022-08-03T08:13:49.091Z,3.15
2022-08-03T08:16:15.900Z,4.22
2022-08-03T08:18:42.546Z,3.10
2022-08-03T08:21:10.315Z,3.38
2022-08-03T08:23:42.500Z,5.00
2022-08-03T08:26:11.083Z,2.45
2022-08-03T08:28:37.527Z,2.45
2022-08-03T08:31:04.132Z,4.78
2022-08-03T08:33:48.296Z,3.25
2022-08-03T08:36:17.381Z,2.42
2022-08-03T08:39:28.705Z,4.97
2022-08-03T08:41:55.386Z,3.80
2022-08-03T08:44:32.281Z,4.60
2022-08-03T08:47:02.619Z,3.30
2022-08-03T08:50:27.374Z,3.95
2022-08-03T08:54:03.240Z,6.38
2022-08-03T09:03:54.407Z,3.15
2022-08-03T09:06:53.713Z,1.80
2022-08-03T09:10:10.571Z,1.38
2022-08-03T09:12:42.213Z,2.13
2022-08-03T09:15:35.904Z,3.13
2022-08-03T09:18:04.216Z,2.25
2022-08-03T09:20:34.311Z,3.58
2022-08-03T09:23:19.169Z,2.00
2022-08-03T09:25:59.896Z,3.78
2022-08-03T09:28:57.937Z,2.17
2022-08-03T09:31:31.568Z,4.03
2022-08-03T09:34:01.372Z,4.10
2022-08-03T09:36:54.543Z,7.35
2022-08-03T09:39:41.541Z,3.50
2022-08-03T09:42:18.389Z,3.17
2022-08-03T09:44:47.291Z,4.68
2022-08-03T09:47:17.267Z,5.13
2022-08-03T09:50:14.243Z,3.08
2022-08-03T09:58:51.241Z,4.32
2022-08-03T10:04:04.011Z,2.38
2022-08-03T10:06:31.377Z,3.28
2022-08-03T10:09:10.315Z,4.32
2022-08-03T10:11:41.594Z,2.90
2022-08-03T10:14:11.201Z,2.80
2022-08-03T10:16:39.990Z,5.28
2022-08-03T10:22:48.144Z,3.30
2022-08-03T10:25:17.065Z,3.55
2022-08-03T10:28:31.058Z,2.03
2022-08-03T10:31:38.821Z,2.88
2022-08-03T10:34:27.073Z,2.30
2022-08-03T10:36:58.421Z,3.67
2022-08-03T10:39:29.393Z,2.70
2022-08-03T10:41:59.878Z,2.60
2022-08-03T10:50:54.099Z,3.78
2022-08-03T10:53:40.593Z,2.03
2022-08-03T10:56:51.273Z,2.97
2022-08-03T10:59:27.695Z,4.53
2022-08-03T11:02:00.153Z,4.50
2022-08-03T11:04:29.972Z,4.20
2022-08-03T11:07:25.043Z,3.75
2022-08-03T11:09:54.408Z,5.95
2022-08-03T11:19:56.868Z,2.13
2022-08-03T11:22:25.194Z,1.92
2022-08-03T11:24:54.153Z,3.17
2022-08-03T11:27:26.047Z,1.45
2022-08-03T11:30:09.560Z,3.60
2022-08-03T11:32:48.376Z,4.22
2022-08-03T11:35:16.966Z,2.58
2022-08-03T11:38:04.395Z,2.30
2022-08-03T11:40:54.736Z,5.60
2022-08-03T11:43:31.379Z,3.33
2022-08-03T11:46:07.521Z,3.92
2022-08-03T11:51:01.668Z,2.80
2022-08-03T11:53:28.968Z,1.83
2022-08-03T11:55:59.440Z,3.08
2022-08-03T11:59:10.993Z,1.40
2022-08-03T12:01:13.726Z,7.05
2022-08-03T12:03:40.525Z,4.03
2022-08-03T12:06:10.747Z,1.83
2022-08-03T12:08:37.561Z,4.65
2022-08-03T12:11:06.792Z,4.88
2022-08-03T12:14:44.169Z,3.50
2022-08-03T12:16:31.980Z,3.65
2022-08-03T12:19:03.982Z,3.47
2022-08-03T12:21:45.774Z,2.90
2022-08-03T12:24:24.340Z,3.20
2022-08-03T12:26:58.162Z,1.92
2022-08-03T12:37:22.099Z,2.95
2022-08-03T12:40:10.459Z,2.63
2022-08-03T12:42:39.765Z,1.95
2022-08-03T12:45:34.653Z,2.58
2022-08-03T12:48:12.464Z,1.92
2022-08-03T12:50:40.334Z,4.13
2022-08-03T12:53:09.358Z,2.60
2022-08-03T12:55:40.166Z,3.30
2022-08-03T12:58:36.210Z,3.63
2022-08-03T13:01:10.142Z,2.05
2022-08-03T13:03:49.652Z,3.70
2022-08-03T13:08:28.079Z,3.03
2022-08-03T13:10:17.693Z,1.67
2022-08-03T13:13:14.549Z,1.45
2022-08-03T13:16:18.989Z,2.67
2022-08-03T13:33:22.727Z,2.60
2022-08-03T13:35:50.886Z,2.20
2022-08-03T13:38:17.939Z,3.33
2022-08-03T13:40:49.428Z,3.00
2022-08-03T13:43:16.589Z,2.28
2022-08-03T13:45:49.373Z,2.25
2022-08-03T13:48:36.905Z,2.50
2022-08-03T13:51:11.987Z,2.45
2022-08-03T13:53:49.845Z,2.63
2022-08-03T13:56:17.417Z,4.43
2022-08-03T13:58:44.166Z,3.40
2022-08-03T14:01:13.169Z,2.03
2022-08-03T14:03:39.878Z,5.20
2022-08-03T14:06:06.512Z,3.53
2022-08-03T14:08:33.185Z,3.67
2022-08-03T14:10:59.915Z,6.22
2022-08-03T14:13:26.625Z,2.03
2022-08-03T14:15:53.269Z,2.78
2022-08-03T14:18:28.477Z,2.78
2022-08-03T14:23:32.666Z,2.28
2022-08-03T14:25:59.551Z,2.10
2022-08-03T14:28:26.306Z,3.63
2022-08-03T14:30:54.641Z,2.63
2022-08-03T14:33:22.022Z,1.95
2022-08-03T14:35:49.478Z,4.88
2022-08-03T14:38:17.609Z,3.72
2022-08-03T14:40:45.215Z,6.50
2022-08-03T14:43:12.393Z,4.18
2022-08-03T14:45:40.289Z,1.92
2022-08-03T14:50:30.652Z,4.07
2022-08-03T14:50:55.501Z,2.00
2022-08-03T14:53:23.297Z,3.10
2022-08-03T14:55:51.986Z,1.83
2022-08-03T14:58:27.633Z,3.47
2022-08-03T15:00:56.010Z,2.53
2022-08-03T15:03:24.955Z,2.75
2022-08-03T15:05:56.809Z,2.85
2022-08-03T15:08:25.005Z,2.35
2022-08-03T15:10:53.143Z,2.35
2022-08-03T15:13:21.630Z,3.88
2022-08-03T15:15:51.959Z,2.88
2022-08-03T15:22:05.500Z,2.10
2022-08-03T15:24:35.748Z,2.10
2022-08-03T15:27:02.318Z,2.42
2022-08-03T15:30:08.221Z,2.03
2022-08-03T15:32:20.508Z,7.25
2022-08-03T15:34:50.374Z,3.03
2022-08-03T15:37:19.213Z,3.88
2022-08-03T15:39:59.345Z,2.30
2022-08-03T15:42:27.146Z,5.10
2022-08-03T15:44:54.530Z,1.67
2022-08-03T15:47:21.765Z,4.78
2022-08-03T15:49:48.698Z,3.25
2022-08-03T15:52:15.387Z,2.70
2022-08-03T15:54:42.061Z,1.70
2022-08-03T15:57:08.803Z,4.15
2022-08-03T15:59:35.466Z,3.53
2022-08-03T16:02:02.348Z,4.82
2022-08-03T16:04:29.086Z,3.40
2022-08-03T16:06:55.747Z,1.75
2022-08-03T16:09:22.836Z,3.30
2022-08-03T16:12:14.482Z,2.65
2022-08-03T16:14:52.839Z,3.20
2022-08-03T16:17:22.086Z,3.50
2022-08-03T16:19:49.151Z,2.58
2022-08-03T16:22:19.499Z,2.97
2022-08-03T16:24:47.489Z,3.13
2022-08-03T16:27:36.633Z,3.50
2022-08-03T16:30:01.463Z,6.65
2022-08-03T16:32:28.244Z,6.40
2022-08-03T16:34:54.969Z,5.38
2022-08-03T16:37:41.275Z,2.85
2022-08-03T16:40:17.311Z,1.85
2022-08-03T16:42:47.052Z,3.83
2022-08-03T16:45:14.358Z,1.73
2022-08-03T16:51:13.696Z,1.35
2022-08-03T16:54:07.942Z,2.70
2022-08-03T16:56:29.414Z,2.60
2022-08-03T16:58:56.697Z,11.00
2022-08-03T17:01:24.646Z,12.50
2022-08-03T17:04:03.446Z,3.33
2022-08-03T17:06:37.476Z,2.00
2022-08-03T17:09:11.166Z,2.95
2022-08-03T17:11:44.145Z,3.60
2022-08-03T17:14:16.013Z,1.05
2022-08-03T17:16:52.979Z,1.88
2022-08-03T17:19:23.728Z,2.67
2022-08-03T17:22:02.153Z,2.72
2022-08-03T17:24:35.548Z,3.65
2022-08-03T17:28:41.492Z,2.55
2022-08-03T17:30:13.474Z,5.40
2022-08-03T17:32:52.707Z,2.78
2022-08-03T17:35:24.839Z,2.90
2022-08-03T17:38:06.733Z,2.00
2022-08-03T17:40:37.968Z,2.67
2022-08-03T17:44:13.194Z,1.73
2022-08-03T17:45:54.576Z,5.53
2022-08-03T17:48:25.564Z,3.65
2022-08-03T17:51:17.296Z,1.65
2022-08-03T17:54:05.811Z,1.38
2022-08-03T17:56:57.766Z,1.88
2022-08-03T17:59:50.653Z,1.77
2022-08-03T18:02:47.638Z,2.60
2022-08-03T18:05:17.710Z,1.95
2022-08-03T18:08:01.455Z,2.10
2022-08-03T18:10:35.161Z,3.73
2022-08-03T18:13:10.632Z,1.60
2022-08-03T18:15:50.380Z,5.05
2022-08-03T18:18:32.506Z,1.60
2022-08-03T18:21:04.566Z,2.08
2022-08-03T18:23:36.800Z,2.08
2022-08-03T18:26:07.499Z,8.50
2022-08-03T18:28:39.399Z,2.72
2022-08-03T18:31:11.661Z,2.60
2022-08-03T18:36:30.466Z,2.10
2022-08-03T18:38:59.686Z,1.42
2022-08-03T18:41:32.246Z,1.80
2022-08-03T18:44:08.496Z,1.90
2022-08-03T18:46:42.112Z,3.38
2022-08-03T18:49:50.655Z,5.05
2022-08-03T18:52:27.112Z,2.35
2022-08-03T18:55:02.652Z,1.75
2022-08-03T18:57:46.503Z,2.65
2022-08-03T19:00:24.551Z,2.55
2022-08-03T19:03:12.403Z,2.15
2022-08-03T19:06:02.448Z,2.70
2022-08-03T19:08:38.600Z,6.75
2022-08-03T19:11:10.117Z,7.57
2022-08-03T19:13:50.758Z,5.78
2022-08-03T19:20:06.275Z,6.72
2022-08-03T19:22:33.908Z,2.88
2022-08-03T19:25:02.503Z,3.40
2022-08-03T19:27:31.557Z,3.03
2022-08-03T19:30:07.620Z,3.85
2022-08-03T19:32:41.593Z,6.57
2022-08-03T19:35:18.998Z,3.63
2022-08-03T19:38:02.720Z,4.20
2022-08-03T19:40:32.800Z,3.50
2022-08-03T19:43:17.530Z,4.20
2022-08-03T19:46:04.916Z,1.70
2022-08-03T19:48:35.452Z,3.38
2022-08-03T19:51:04.645Z,3.85
2022-08-03T19:53:45.160Z,3.47
2022-08-03T19:56:14.461Z,5.90
2022-08-03T19:58:43.241Z,2.70
2022-08-03T20:01:19.270Z,1.88
2022-08-03T20:03:49.055Z,3.90
2022-08-03T20:06:17.282Z,7.03
2022-08-03T20:08:44.221Z,2.75
2022-08-03T20:11:11.747Z,3.65
2022-08-03T20:13:39.167Z,3.85
2022-08-03T20:16:06.265Z,7.03
2022-08-03T20:18:39.268Z,3.15
2022-08-03T20:21:15.256Z,3.33
2022-08-03T20:24:01.739Z,3.97
2022-08-03T20:26:30.640Z,3.35
2022-08-03T20:29:06.103Z,3.42
2022-08-03T20:31:37.767Z,3.85
2022-08-03T20:34:06.528Z,5.75
2022-08-03T20:36:33.367Z,4.00
2022-08-03T20:39:00.144Z,4.75
2022-08-03T20:41:27.096Z,4.13
2022-08-03T20:43:54.456Z,5.50
2022-08-03T20:46:32.821Z,3.53
2022-08-03T20:49:06.178Z,5.68
2022-08-03T20:51:50.083Z,4.55
2022-08-03T20:54:29.661Z,7.03
2022-08-03T20:57:00.821Z,5.03
2022-08-03T21:02:29.505Z,4.07
2022-08-03T21:05:02.873Z,4.63
2022-08-03T21:08:06.250Z,2.75
2022-08-03T21:10:37.893Z,3.35
2022-08-03T21:13:04.224Z,2.08
2022-08-03T21:13:07.829Z,5.43
2022-08-03T21:13:18.937Z,9.38
2022-08-03T21:16:11.483Z,4.78
2022-08-03T21:18:44.425Z,6.20
2022-08-03T21:21:16.293Z,7.22
2022-08-03T21:23:48.929Z,5.13
2022-08-03T21:26:19.029Z,4.35
2022-08-03T21:28:51.314Z,3.15
2022-08-03T21:31:24.368Z,3.13
2022-08-03T21:33:58.110Z,3.75
2022-08-03T21:36:27.962Z,2.80
2022-08-03T21:38:57.261Z,3.38
2022-08-03T21:41:29.917Z,3.10
2022-08-03T21:43:57.661Z,3.42
2022-08-03T21:46:26.751Z,3.70
2022-08-03T21:50:05.120Z,6.05
2022-08-03T21:51:50.269Z,3.33
2022-08-03T21:54:20.353Z,3.20
2022-08-03T21:56:48.381Z,3.92
2022-08-03T21:59:23.274Z,4.18
2022-08-03T22:01:55.221Z,4.45
2022-08-03T22:04:50.241Z,3.08
2022-08-03T22:07:12.722Z,3.55
2022-08-03T22:09:39.825Z,4.30
2022-08-03T22:12:17.518Z,7.68
2022-08-03T22:14:45.237Z,3.60
2022-08-03T22:17:12.385Z,3.95
2022-08-03T22:19:59.101Z,2.92
2022-08-03T22:22:28.516Z,3.45
2022-08-03T22:25:04.284Z,3.30
2022-08-03T22:27:34.395Z,3.70
2022-08-03T22:30:21.580Z,3.03
2022-08-03T22:32:52.075Z,3.00
2022-08-03T22:35:21.027Z,3.25
2022-08-03T22:37:49.693Z,3.42
2022-08-03T22:40:17.028Z,3.22
2022-08-03T22:42:46.066Z,3.30
2022-08-03T22:46:06.112Z,4.80
2022-08-03T22:48:00.462Z,4.13
2022-08-03T22:50:32.045Z,4.35
2022-08-03T22:53:00.413Z,4.13
2022-08-03T22:55:27.674Z,3.35
2022-08-03T22:57:56.014Z,3.25
2022-08-03T23:00:24.196Z,4.47
2022-08-03T23:02:53.687Z,4.18
2022-08-03T23:06:01.645Z,3.05
2022-08-03T23:08:15.173Z,3.97
2022-08-03T23:10:47.055Z,3.90
2022-08-03T23:13:17.450Z,4.57
2022-08-03T23:15:51.444Z,3.55
2022-08-03T23:18:22.183Z,4.50
2022-08-03T23:20:52.975Z,4.80
2022-08-03T23:23:20.595Z,4.13
2022-08-03T23:25:49.784Z,3.70
2022-08-03T23:28:17.360Z,3.42
2022-08-03T23:30:45.548Z,4.97
2022-08-03T23:33:14.957Z,3.47
2022-08-03T23:36:28.725Z,2.88
2022-08-03T23:38:46.290Z,3.90
2022-08-03T23:41:14.016Z,4.75
2022-08-03T23:43:51.083Z,4.25
2022-08-03T23:46:20.086Z,3.75
2022-08-03T23:48:46.856Z,4.75
2022-08-03T23:51:40.734Z,3.85
2022-08-03T23:54:55.266Z,4.65
2022-08-03T23:57:43.258Z,5.90
